sensor_id;sensor_type;location;lat;lon;timestamp;P1;durP1;ratioP1;P2;durP2;ratioP2
16506;SDS011;8366;51.020;7.642;2022-12-18T00:01:51;40.40;;;17.70;;
16506;SDS011;8366;51.020;7.642;2022-12-18T00:04:21;42.13;;;18.50;;
16506;SDS011;8366;51.020;7.642;2022-12-18T00:06:48;46.33;;;19.10;;
16506;SDS011;8366;51.020;7.642;2022-12-18T00:09:15;42.80;;;18.77;;
16506;SDS011;8366;51.020;7.642;2022-12-18T00:11:41;45.20;;;19.27;;
16506;SDS011;8366;51.020;7.642;2022-12-18T00:14:08;49.90;;;22.00;;
16506;SDS011;8366;51.020;7.642;2022-12-18T00:16:35;47.87;;;22.50;;
16506;SDS011;8366;51.020;7.642;2022-12-18T00:19:02;50.97;;;23.37;;
16506;SDS011;8366;51.020;7.642;2022-12-18T00:21:31;47.33;;;21.20;;
16506;SDS011;8366;51.020;7.642;2022-12-18T00:23:58;49.53;;;23.13;;
16506;SDS011;8366;51.020;7.642;2022-12-18T00:26:26;56.97;;;23.20;;
16506;SDS011;8366;51.020;7.642;2022-12-18T00:28:54;45.33;;;21.00;;
16506;SDS011;8366;51.020;7.642;2022-12-18T00:31:22;48.13;;;21.20;;
16506;SDS011;8366;51.020;7.642;2022-12-18T00:33:49;49.57;;;22.10;;
16506;SDS011;8366;51.020;7.642;2022-12-18T00:36:17;45.73;;;21.27;;
16506;SDS011;8366;51.020;7.642;2022-12-18T00:38:46;39.33;;;17.07;;
16506;SDS011;8366;51.020;7.642;2022-12-18T00:41:14;38.37;;;18.03;;
16506;SDS011;8366;51.020;7.642;2022-12-18T00:44:01;38.37;;;17.73;;
16506;SDS011;8366;51.020;7.642;2022-12-18T00:46:27;37.50;;;18.33;;
16506;SDS011;8366;51.020;7.642;2022-12-18T00:48:54;37.33;;;18.33;;
16506;SDS011;8366;51.020;7.642;2022-12-18T00:51:20;33.23;;;16.70;;
16506;SDS011;8366;51.020;7.642;2022-12-18T00:53:48;39.63;;;18.00;;
16506;SDS011;8366;51.020;7.642;2022-12-18T00:56:14;32.67;;;16.37;;
16506;SDS011;8366;51.020;7.642;2022-12-18T00:58:41;34.03;;;18.23;;
16506;SDS011;8366;51.020;7.642;2022-12-18T01:01:07;37.87;;;16.50;;
16506;SDS011;8366;51.020;7.642;2022-12-18T01:03:34;32.23;;;14.40;;
16506;SDS011;8366;51.020;7.642;2022-12-18T01:06:04;32.87;;;15.70;;
16506;SDS011;8366;51.020;7.642;2022-12-18T01:08:32;32.07;;;15.13;;
16506;SDS011;8366;51.020;7.642;2022-12-18T01:10:59;34.07;;;16.50;;
16506;SDS011;8366;51.020;7.642;2022-12-18T01:13:26;34.40;;;16.17;;
16506;SDS011;8366;51.020;7.642;2022-12-18T01:15:53;34.43;;;14.80;;
16506;SDS011;8366;51.020;7.642;2022-12-18T01:18:19;31.93;;;16.13;;
16506;SDS011;8366;51.020;7.642;2022-12-18T01:20:45;31.17;;;14.33;;
16506;SDS011;8366;51.020;7.642;2022-12-18T01:23:12;31.60;;;16.10;;
16506;SDS011;8366;51.020;7.642;2022-12-18T01:25:38;39.43;;;17.80;;
16506;SDS011;8366;51.020;7.642;2022-12-18T01:28:06;31.67;;;15.70;;
16506;SDS011;8366;51.020;7.642;2022-12-18T01:30:33;36.07;;;17.23;;
16506;SDS011;8366;51.020;7.642;2022-12-18T01:32:59;32.53;;;16.20;;
16506;SDS011;8366;51.020;7.642;2022-12-18T01:35:26;28.80;;;14.40;;
16506;SDS011;8366;51.020;7.642;2022-12-18T01:37:55;34.43;;;14.27;;
16506;SDS011;8366;51.020;7.642;2022-12-18T01:40:22;31.60;;;13.47;;
16506;SDS011;8366;51.020;7.642;2022-12-18T01:42:49;24.77;;;13.80;;
16506;SDS011;8366;51.020;7.642;2022-12-18T01:45:24;32.53;;;16.03;;
16506;SDS011;8366;51.020;7.642;2022-12-18T01:47:52;29.37;;;14.43;;
16506;SDS011;8366;51.020;7.642;2022-12-18T01:50:21;29.27;;;14.43;;
16506;SDS011;8366;51.020;7.642;2022-12-18T01:52:49;32.73;;;14.83;;
16506;SDS011;8366;51.020;7.642;2022-12-18T01:55:18;27.80;;;13.93;;
16506;SDS011;8366;51.020;7.642;2022-12-18T01:57:46;22.57;;;11.93;;
16506;SDS011;8366;51.020;7.642;2022-12-18T02:00:14;21.30;;;10.63;;
16506;SDS011;8366;51.020;7.642;2022-12-18T02:02:43;23.67;;;11.00;;
16506;SDS011;8366;51.020;7.642;2022-12-18T02:05:11;19.93;;;10.67;;
16506;SDS011;8366;51.020;7.642;2022-12-18T02:07:42;20.17;;;9.97;;
16506;SDS011;8366;51.020;7.642;2022-12-18T02:10:12;16.83;;;8.83;;
16506;SDS011;8366;51.020;7.642;2022-12-18T02:12:42;18.60;;;8.90;;
16506;SDS011;8366;51.020;7.642;2022-12-18T02:15:13;17.57;;;9.43;;
16506;SDS011;8366;51.020;7.642;2022-12-18T02:17:43;17.37;;;9.63;;
16506;SDS011;8366;51.020;7.642;2022-12-18T02:20:16;22.67;;;9.87;;
16506;SDS011;8366;51.020;7.642;2022-12-18T02:22:46;14.80;;;7.40;;
16506;SDS011;8366;51.020;7.642;2022-12-18T02:25:25;15.73;;;8.40;;
16506;SDS011;8366;51.020;7.642;2022-12-18T02:28:01;18.50;;;9.37;;
16506;SDS011;8366;51.020;7.642;2022-12-18T02:30:31;17.70;;;9.17;;
16506;SDS011;8366;51.020;7.642;2022-12-18T02:32:58;20.57;;;10.17;;
16506;SDS011;8366;51.020;7.642;2022-12-18T02:35:26;19.93;;;9.00;;
16506;SDS011;8366;51.020;7.642;2022-12-18T02:37:54;23.03;;;10.70;;
16506;SDS011;8366;51.020;7.642;2022-12-18T02:40:22;20.93;;;10.37;;
16506;SDS011;8366;51.020;7.642;2022-12-18T02:42:50;21.53;;;9.30;;
16506;SDS011;8366;51.020;7.642;2022-12-18T02:45:18;17.00;;;9.57;;
16506;SDS011;8366;51.020;7.642;2022-12-18T02:47:45;18.50;;;8.40;;
16506;SDS011;8366;51.020;7.642;2022-12-18T02:50:19;17.23;;;7.43;;
16506;SDS011;8366;51.020;7.642;2022-12-18T02:52:52;17.20;;;7.17;;
16506;SDS011;8366;51.020;7.642;2022-12-18T02:55:27;15.07;;;7.63;;
16506;SDS011;8366;51.020;7.642;2022-12-18T02:57:58;12.47;;;6.27;;
16506;SDS011;8366;51.020;7.642;2022-12-18T03:00:33;14.37;;;7.03;;
16506;SDS011;8366;51.020;7.642;2022-12-18T03:03:05;15.37;;;7.00;;
16506;SDS011;8366;51.020;7.642;2022-12-18T03:05:36;11.20;;;6.73;;
16506;SDS011;8366;51.020;7.642;2022-12-18T03:08:06;11.63;;;5.77;;
16506;SDS011;8366;51.020;7.642;2022-12-18T03:10:35;10.23;;;5.53;;
16506;SDS011;8366;51.020;7.642;2022-12-18T03:13:06;13.33;;;6.10;;
16506;SDS011;8366;51.020;7.642;2022-12-18T03:15:36;12.30;;;5.73;;
16506;SDS011;8366;51.020;7.642;2022-12-18T03:18:04;12.23;;;5.47;;
16506;SDS011;8366;51.020;7.642;2022-12-18T03:20:34;11.20;;;5.67;;
16506;SDS011;8366;51.020;7.642;2022-12-18T03:23:02;12.57;;;5.57;;
16506;SDS011;8366;51.020;7.642;2022-12-18T03:25:30;8.77;;;5.20;;
16506;SDS011;8366;51.020;7.642;2022-12-18T03:27:58;11.03;;;5.87;;
16506;SDS011;8366;51.020;7.642;2022-12-18T03:30:27;9.40;;;5.17;;
16506;SDS011;8366;51.020;7.642;2022-12-18T03:32:58;12.30;;;5.67;;
16506;SDS011;8366;51.020;7.642;2022-12-18T03:35:28;10.83;;;5.73;;
16506;SDS011;8366;51.020;7.642;2022-12-18T03:37:56;15.57;;;6.67;;
16506;SDS011;8366;51.020;7.642;2022-12-18T03:40:24;19.17;;;6.93;;
16506;SDS011;8366;51.020;7.642;2022-12-18T03:42:55;14.97;;;6.93;;
16506;SDS011;8366;51.020;7.642;2022-12-18T03:45:26;13.73;;;6.40;;
16506;SDS011;8366;51.020;7.642;2022-12-18T03:48:00;14.07;;;5.20;;
16506;SDS011;8366;51.020;7.642;2022-12-18T03:50:31;11.00;;;5.50;;
16506;SDS011;8366;51.020;7.642;2022-12-18T03:53:04;11.93;;;5.63;;
16506;SDS011;8366;51.020;7.642;2022-12-18T03:55:35;9.27;;;5.10;;
16506;SDS011;8366;51.020;7.642;2022-12-18T03:58:02;12.30;;;5.90;;
16506;SDS011;8366;51.020;7.642;2022-12-18T04:00:29;9.20;;;5.37;;
16506;SDS011;8366;51.020;7.642;2022-12-18T04:02:57;14.80;;;5.80;;
16506;SDS011;8366;51.020;7.642;2022-12-18T04:05:26;11.63;;;5.80;;
16506;SDS011;8366;51.020;7.642;2022-12-18T04:07:54;11.43;;;5.93;;
16506;SDS011;8366;51.020;7.642;2022-12-18T04:10:22;11.20;;;5.83;;
16506;SDS011;8366;51.020;7.642;2022-12-18T04:12:48;10.23;;;5.57;;
16506;SDS011;8366;51.020;7.642;2022-12-18T04:15:15;12.37;;;5.43;;
16506;SDS011;8366;51.020;7.642;2022-12-18T04:17:43;10.97;;;5.43;;
16506;SDS011;8366;51.020;7.642;2022-12-18T04:20:14;9.70;;;5.17;;
16506;SDS011;8366;51.020;7.642;2022-12-18T04:22:41;11.03;;;6.00;;
16506;SDS011;8366;51.020;7.642;2022-12-18T04:25:08;9.33;;;5.37;;
16506;SDS011;8366;51.020;7.642;2022-12-18T04:27:34;11.10;;;5.47;;
16506;SDS011;8366;51.020;7.642;2022-12-18T04:30:01;8.40;;;4.50;;
16506;SDS011;8366;51.020;7.642;2022-12-18T04:32:27;10.97;;;5.70;;
16506;SDS011;8366;51.020;7.642;2022-12-18T04:34:54;11.23;;;6.03;;
16506;SDS011;8366;51.020;7.642;2022-12-18T04:37:21;11.63;;;5.43;;
16506;SDS011;8366;51.020;7.642;2022-12-18T04:39:48;11.97;;;5.67;;
16506;SDS011;8366;51.020;7.642;2022-12-18T04:42:14;10.20;;;5.57;;
16506;SDS011;8366;51.020;7.642;2022-12-18T04:44:41;16.50;;;8.33;;
16506;SDS011;8366;51.020;7.642;2022-12-18T04:47:07;20.90;;;9.47;;
16506;SDS011;8366;51.020;7.642;2022-12-18T04:49:33;16.30;;;7.00;;
16506;SDS011;8366;51.020;7.642;2022-12-18T04:52:00;12.37;;;6.17;;
16506;SDS011;8366;51.020;7.642;2022-12-18T04:54:28;11.83;;;6.03;;
16506;SDS011;8366;51.020;7.642;2022-12-18T04:56:54;13.13;;;6.17;;
16506;SDS011;8366;51.020;7.642;2022-12-18T04:59:21;12.67;;;6.23;;
16506;SDS011;8366;51.020;7.642;2022-12-18T05:01:47;12.73;;;6.90;;
16506;SDS011;8366;51.020;7.642;2022-12-18T05:04:13;13.00;;;6.70;;
16506;SDS011;8366;51.020;7.642;2022-12-18T05:06:40;15.07;;;7.13;;
16506;SDS011;8366;51.020;7.642;2022-12-18T05:09:06;13.83;;;6.83;;
16506;SDS011;8366;51.020;7.642;2022-12-18T05:11:34;15.10;;;6.87;;
16506;SDS011;8366;51.020;7.642;2022-12-18T05:14:02;13.63;;;6.83;;
16506;SDS011;8366;51.020;7.642;2022-12-18T05:16:28;12.70;;;6.63;;
16506;SDS011;8366;51.020;7.642;2022-12-18T05:18:55;13.83;;;6.10;;
16506;SDS011;8366;51.020;7.642;2022-12-18T05:21:21;12.47;;;6.47;;
16506;SDS011;8366;51.020;7.642;2022-12-18T05:23:48;16.60;;;7.23;;
16506;SDS011;8366;51.020;7.642;2022-12-18T05:26:16;16.03;;;7.23;;
16506;SDS011;8366;51.020;7.642;2022-12-18T05:28:44;16.30;;;7.23;;
16506;SDS011;8366;51.020;7.642;2022-12-18T05:31:11;15.20;;;6.53;;
16506;SDS011;8366;51.020;7.642;2022-12-18T05:33:37;13.90;;;6.73;;
16506;SDS011;8366;51.020;7.642;2022-12-18T05:36:05;12.33;;;6.33;;
16506;SDS011;8366;51.020;7.642;2022-12-18T05:38:33;12.03;;;7.67;;
16506;SDS011;8366;51.020;7.642;2022-12-18T05:41:01;15.17;;;6.63;;
16506;SDS011;8366;51.020;7.642;2022-12-18T05:43:27;12.50;;;6.57;;
16506;SDS011;8366;51.020;7.642;2022-12-18T05:45:55;16.77;;;7.87;;
16506;SDS011;8366;51.020;7.642;2022-12-18T05:48:22;12.10;;;6.33;;
16506;SDS011;8366;51.020;7.642;2022-12-18T05:50:49;14.43;;;7.37;;
16506;SDS011;8366;51.020;7.642;2022-12-18T05:53:16;11.50;;;6.00;;
16506;SDS011;8366;51.020;7.642;2022-12-18T05:55:44;13.73;;;7.30;;
16506;SDS011;8366;51.020;7.642;2022-12-18T05:58:11;16.63;;;7.73;;
16506;SDS011;8366;51.020;7.642;2022-12-18T06:00:39;13.43;;;7.50;;
16506;SDS011;8366;51.020;7.642;2022-12-18T06:03:08;12.03;;;6.67;;
16506;SDS011;8366;51.020;7.642;2022-12-18T06:05:36;12.90;;;6.13;;
16506;SDS011;8366;51.020;7.642;2022-12-18T06:08:03;14.10;;;6.77;;
16506;SDS011;8366;51.020;7.642;2022-12-18T06:10:30;13.27;;;6.07;;
16506;SDS011;8366;51.020;7.642;2022-12-18T06:12:56;14.17;;;7.07;;
16506;SDS011;8366;51.020;7.642;2022-12-18T06:15:23;16.33;;;7.30;;
16506;SDS011;8366;51.020;7.642;2022-12-18T06:17:49;12.53;;;6.37;;
16506;SDS011;8366;51.020;7.642;2022-12-18T06:20:17;13.90;;;7.37;;
16506;SDS011;8366;51.020;7.642;2022-12-18T06:22:44;10.57;;;5.40;;
16506;SDS011;8366;51.020;7.642;2022-12-18T06:25:11;12.93;;;7.13;;
16506;SDS011;8366;51.020;7.642;2022-12-18T06:27:37;14.70;;;6.73;;
16506;SDS011;8366;51.020;7.642;2022-12-18T06:30:04;14.33;;;7.30;;
16506;SDS011;8366;51.020;7.642;2022-12-18T06:32:31;12.90;;;6.73;;
16506;SDS011;8366;51.020;7.642;2022-12-18T06:34:58;12.93;;;7.43;;
16506;SDS011;8366;51.020;7.642;2022-12-18T06:37:26;14.70;;;6.90;;
16506;SDS011;8366;51.020;7.642;2022-12-18T06:39:52;17.17;;;6.20;;
16506;SDS011;8366;51.020;7.642;2022-12-18T06:42:19;13.80;;;6.43;;
16506;SDS011;8366;51.020;7.642;2022-12-18T06:44:45;11.30;;;5.97;;
16506;SDS011;8366;51.020;7.642;2022-12-18T06:47:12;12.63;;;6.93;;
16506;SDS011;8366;51.020;7.642;2022-12-18T06:49:38;12.63;;;6.67;;
16506;SDS011;8366;51.020;7.642;2022-12-18T06:52:04;12.50;;;6.37;;
16506;SDS011;8366;51.020;7.642;2022-12-18T06:54:32;14.10;;;7.40;;
16506;SDS011;8366;51.020;7.642;2022-12-18T06:56:59;16.80;;;7.87;;
16506;SDS011;8366;51.020;7.642;2022-12-18T06:59:25;12.73;;;7.37;;
16506;SDS011;8366;51.020;7.642;2022-12-18T07:01:52;13.13;;;7.27;;
16506;SDS011;8366;51.020;7.642;2022-12-18T07:04:18;12.53;;;6.47;;
16506;SDS011;8366;51.020;7.642;2022-12-18T07:06:44;13.43;;;6.63;;
16506;SDS011;8366;51.020;7.642;2022-12-18T07:09:11;13.53;;;6.60;;
16506;SDS011;8366;51.020;7.642;2022-12-18T07:11:39;15.73;;;8.20;;
16506;SDS011;8366;51.020;7.642;2022-12-18T07:14:06;14.10;;;7.73;;
16506;SDS011;8366;51.020;7.642;2022-12-18T07:16:32;14.73;;;7.70;;
16506;SDS011;8366;51.020;7.642;2022-12-18T07:18:59;13.20;;;7.47;;
16506;SDS011;8366;51.020;7.642;2022-12-18T07:21:25;13.97;;;7.60;;
16506;SDS011;8366;51.020;7.642;2022-12-18T07:23:51;17.27;;;8.30;;
16506;SDS011;8366;51.020;7.642;2022-12-18T07:26:19;24.17;;;10.33;;
16506;SDS011;8366;51.020;7.642;2022-12-18T07:28:48;19.77;;;10.20;;
16506;SDS011;8366;51.020;7.642;2022-12-18T07:31:15;18.73;;;9.27;;
16506;SDS011;8366;51.020;7.642;2022-12-18T07:33:43;13.43;;;7.57;;
16506;SDS011;8366;51.020;7.642;2022-12-18T07:36:10;62.20;;;21.23;;
16506;SDS011;8366;51.020;7.642;2022-12-18T07:38:36;50.73;;;20.30;;
16506;SDS011;8366;51.020;7.642;2022-12-18T07:41:04;21.07;;;10.33;;
16506;SDS011;8366;51.020;7.642;2022-12-18T07:43:31;27.10;;;14.23;;
16506;SDS011;8366;51.020;7.642;2022-12-18T07:45:59;17.47;;;8.80;;
16506;SDS011;8366;51.020;7.642;2022-12-18T07:48:26;16.93;;;9.97;;
16506;SDS011;8366;51.020;7.642;2022-12-18T07:50:53;13.33;;;8.17;;
16506;SDS011;8366;51.020;7.642;2022-12-18T07:53:21;14.20;;;7.73;;
16506;SDS011;8366;51.020;7.642;2022-12-18T07:55:47;15.17;;;7.67;;
16506;SDS011;8366;51.020;7.642;2022-12-18T07:58:14;14.77;;;7.00;;
16506;SDS011;8366;51.020;7.642;2022-12-18T08:00:40;12.77;;;7.30;;
16506;SDS011;8366;51.020;7.642;2022-12-18T08:03:08;15.30;;;8.13;;
16506;SDS011;8366;51.020;7.642;2022-12-18T08:05:34;13.10;;;6.70;;
16506;SDS011;8366;51.020;7.642;2022-12-18T08:08:01;12.27;;;6.97;;
16506;SDS011;8366;51.020;7.642;2022-12-18T08:10:27;12.10;;;6.60;;
16506;SDS011;8366;51.020;7.642;2022-12-18T08:12:54;15.30;;;7.90;;
16506;SDS011;8366;51.020;7.642;2022-12-18T08:15:20;14.87;;;8.70;;
16506;SDS011;8366;51.020;7.642;2022-12-18T08:17:47;11.67;;;7.27;;
16506;SDS011;8366;51.020;7.642;2022-12-18T08:20:15;13.27;;;6.80;;
16506;SDS011;8366;51.020;7.642;2022-12-18T08:22:43;12.50;;;6.80;;
16506;SDS011;8366;51.020;7.642;2022-12-18T08:25:09;13.80;;;7.67;;
16506;SDS011;8366;51.020;7.642;2022-12-18T08:27:36;16.13;;;7.17;;
16506;SDS011;8366;51.020;7.642;2022-12-18T08:30:03;11.90;;;6.77;;
16506;SDS011;8366;51.020;7.642;2022-12-18T08:32:30;12.17;;;6.97;;
16506;SDS011;8366;51.020;7.642;2022-12-18T08:34:57;12.87;;;6.53;;
16506;SDS011;8366;51.020;7.642;2022-12-18T08:37:25;14.33;;;6.93;;
16506;SDS011;8366;51.020;7.642;2022-12-18T08:39:52;12.37;;;7.30;;
16506;SDS011;8366;51.020;7.642;2022-12-18T08:42:18;13.00;;;6.50;;
16506;SDS011;8366;51.020;7.642;2022-12-18T08:45:02;11.63;;;6.37;;
16506;SDS011;8366;51.020;7.642;2022-12-18T08:47:29;10.67;;;5.90;;
16506;SDS011;8366;51.020;7.642;2022-12-18T08:49:56;11.50;;;6.33;;
16506;SDS011;8366;51.020;7.642;2022-12-18T08:52:22;12.20;;;6.60;;
16506;SDS011;8366;51.020;7.642;2022-12-18T08:54:50;36.67;;;13.43;;
16506;SDS011;8366;51.020;7.642;2022-12-18T08:57:17;42.20;;;15.47;;
16506;SDS011;8366;51.020;7.642;2022-12-18T08:59:43;48.67;;;15.90;;
16506;SDS011;8366;51.020;7.642;2022-12-18T09:02:10;12.83;;;6.93;;
16506;SDS011;8366;51.020;7.642;2022-12-18T09:04:37;16.33;;;7.70;;
16506;SDS011;8366;51.020;7.642;2022-12-18T09:07:04;25.73;;;11.27;;
16506;SDS011;8366;51.020;7.642;2022-12-18T09:09:31;17.70;;;8.70;;
16506;SDS011;8366;51.020;7.642;2022-12-18T09:11:59;28.37;;;13.23;;
16506;SDS011;8366;51.020;7.642;2022-12-18T09:14:25;26.63;;;12.53;;
16506;SDS011;8366;51.020;7.642;2022-12-18T09:16:52;18.07;;;9.50;;
16506;SDS011;8366;51.020;7.642;2022-12-18T09:19:18;11.93;;;6.73;;
16506;SDS011;8366;51.020;7.642;2022-12-18T09:21:45;10.90;;;6.27;;
16506;SDS011;8366;51.020;7.642;2022-12-18T09:24:12;10.73;;;6.13;;
16506;SDS011;8366;51.020;7.642;2022-12-18T09:26:39;11.07;;;6.53;;
16506;SDS011;8366;51.020;7.642;2022-12-18T09:29:07;11.97;;;7.33;;
16506;SDS011;8366;51.020;7.642;2022-12-18T09:31:34;11.87;;;6.37;;
16506;SDS011;8366;51.020;7.642;2022-12-18T09:34:01;13.40;;;7.30;;
16506;SDS011;8366;51.020;7.642;2022-12-18T09:36:27;9.53;;;5.73;;
16506;SDS011;8366;51.020;7.642;2022-12-18T09:38:57;11.17;;;6.40;;
16506;SDS011;8366;51.020;7.642;2022-12-18T09:41:32;7.93;;;5.07;;
16506;SDS011;8366;51.020;7.642;2022-12-18T09:44:04;9.73;;;5.90;;
16506;SDS011;8366;51.020;7.642;2022-12-18T09:46:38;10.93;;;5.83;;
16506;SDS011;8366;51.020;7.642;2022-12-18T09:49:10;9.60;;;5.53;;
16506;SDS011;8366;51.020;7.642;2022-12-18T09:51:39;10.57;;;5.70;;
16506;SDS011;8366;51.020;7.642;2022-12-18T09:54:11;9.20;;;5.60;;
16506;SDS011;8366;51.020;7.642;2022-12-18T09:56:40;9.23;;;5.33;;
16506;SDS011;8366;51.020;7.642;2022-12-18T09:59:14;9.67;;;5.27;;
16506;SDS011;8366;51.020;7.642;2022-12-18T10:01:45;9.73;;;5.47;;
16506;SDS011;8366;51.020;7.642;2022-12-18T10:04:11;8.50;;;5.30;;
16506;SDS011;8366;51.020;7.642;2022-12-18T10:06:39;11.67;;;6.40;;
16506;SDS011;8366;51.020;7.642;2022-12-18T10:09:09;9.20;;;5.60;;
16506;SDS011;8366;51.020;7.642;2022-12-18T10:11:43;10.27;;;5.23;;
16506;SDS011;8366;51.020;7.642;2022-12-18T10:14:22;10.33;;;6.00;;
16506;SDS011;8366;51.020;7.642;2022-12-18T10:16:53;11.20;;;5.37;;
16506;SDS011;8366;51.020;7.642;2022-12-18T10:19:26;10.90;;;5.30;;
16506;SDS011;8366;51.020;7.642;2022-12-18T10:22:07;9.13;;;5.77;;
16506;SDS011;8366;51.020;7.642;2022-12-18T10:24:42;11.90;;;5.73;;
16506;SDS011;8366;51.020;7.642;2022-12-18T10:27:13;9.03;;;5.60;;
16506;SDS011;8366;51.020;7.642;2022-12-18T10:29:42;10.07;;;5.80;;
16506;SDS011;8366;51.020;7.642;2022-12-18T10:32:09;9.90;;;5.60;;
16506;SDS011;8366;51.020;7.642;2022-12-18T10:34:40;11.17;;;6.50;;
16506;SDS011;8366;51.020;7.642;2022-12-18T10:37:20;12.53;;;6.70;;
16506;SDS011;8366;51.020;7.642;2022-12-18T10:40:04;10.13;;;5.73;;
16506;SDS011;8366;51.020;7.642;2022-12-18T10:42:35;10.60;;;5.57;;
16506;SDS011;8366;51.020;7.642;2022-12-18T10:45:06;11.53;;;6.27;;
16506;SDS011;8366;51.020;7.642;2022-12-18T10:47:36;8.57;;;5.13;;
16506;SDS011;8366;51.020;7.642;2022-12-18T10:50:03;10.40;;;6.00;;
16506;SDS011;8366;51.020;7.642;2022-12-18T10:52:30;11.17;;;6.33;;
16506;SDS011;8366;51.020;7.642;2022-12-18T10:54:57;8.83;;;5.40;;
16506;SDS011;8366;51.020;7.642;2022-12-18T10:57:30;9.67;;;5.67;;
16506;SDS011;8366;51.020;7.642;2022-12-18T10:59:59;11.43;;;6.10;;
16506;SDS011;8366;51.020;7.642;2022-12-18T11:02:46;8.90;;;5.60;;
16506;SDS011;8366;51.020;7.642;2022-12-18T11:05:22;9.67;;;6.23;;
16506;SDS011;8366;51.020;7.642;2022-12-18T11:07:51;13.63;;;8.10;;
16506;SDS011;8366;51.020;7.642;2022-12-18T11:10:19;11.37;;;6.03;;
16506;SDS011;8366;51.020;7.642;2022-12-18T11:12:47;10.00;;;6.10;;
16506;SDS011;8366;51.020;7.642;2022-12-18T11:15:15;12.23;;;6.30;;
16506;SDS011;8366;51.020;7.642;2022-12-18T11:17:43;11.67;;;5.83;;
16506;SDS011;8366;51.020;7.642;2022-12-18T11:20:19;10.67;;;6.33;;
16506;SDS011;8366;51.020;7.642;2022-12-18T11:22:54;11.07;;;6.50;;
16506;SDS011;8366;51.020;7.642;2022-12-18T11:25:22;12.10;;;6.37;;
16506;SDS011;8366;51.020;7.642;2022-12-18T11:27:50;11.10;;;6.03;;
16506;SDS011;8366;51.020;7.642;2022-12-18T11:30:21;10.30;;;6.20;;
16506;SDS011;8366;51.020;7.642;2022-12-18T11:32:51;10.37;;;6.43;;
16506;SDS011;8366;51.020;7.642;2022-12-18T11:35:19;12.23;;;6.80;;
16506;SDS011;8366;51.020;7.642;2022-12-18T11:37:49;9.07;;;5.60;;
16506;SDS011;8366;51.020;7.642;2022-12-18T11:40:24;10.47;;;6.40;;
16506;SDS011;8366;51.020;7.642;2022-12-18T11:42:54;9.70;;;6.37;;
16506;SDS011;8366;51.020;7.642;2022-12-18T11:45:25;10.33;;;6.43;;
16506;SDS011;8366;51.020;7.642;2022-12-18T11:47:56;12.67;;;7.17;;
16506;SDS011;8366;51.020;7.642;2022-12-18T11:50:25;11.83;;;6.50;;
16506;SDS011;8366;51.020;7.642;2022-12-18T11:52:54;11.60;;;6.93;;
16506;SDS011;8366;51.020;7.642;2022-12-18T11:55:23;14.93;;;7.13;;
16506;SDS011;8366;51.020;7.642;2022-12-18T11:57:56;11.03;;;6.53;;
16506;SDS011;8366;51.020;7.642;2022-12-18T12:00:27;10.77;;;6.97;;
16506;SDS011;8366;51.020;7.642;2022-12-18T12:03:07;11.40;;;6.73;;
16506;SDS011;8366;51.020;7.642;2022-12-18T12:05:44;13.73;;;6.70;;
16506;SDS011;8366;51.020;7.642;2022-12-18T12:08:15;14.97;;;7.73;;
16506;SDS011;8366;51.020;7.642;2022-12-18T12:10:49;12.73;;;7.33;;
16506;SDS011;8366;51.020;7.642;2022-12-18T12:13:23;11.83;;;7.13;;
16506;SDS011;8366;51.020;7.642;2022-12-18T12:15:59;12.00;;;7.17;;
16506;SDS011;8366;51.020;7.642;2022-12-18T12:18:36;11.93;;;7.00;;
16506;SDS011;8366;51.020;7.642;2022-12-18T12:21:11;13.60;;;7.60;;
16506;SDS011;8366;51.020;7.642;2022-12-18T12:23:41;13.53;;;7.70;;
16506;SDS011;8366;51.020;7.642;2022-12-18T12:26:12;13.17;;;7.50;;
16506;SDS011;8366;51.020;7.642;2022-12-18T12:28:48;11.93;;;7.37;;
16506;SDS011;8366;51.020;7.642;2022-12-18T12:31:22;11.33;;;7.30;;
16506;SDS011;8366;51.020;7.642;2022-12-18T12:33:56;14.27;;;7.53;;
16506;SDS011;8366;51.020;7.642;2022-12-18T12:36:29;13.27;;;7.50;;
16506;SDS011;8366;51.020;7.642;2022-12-18T12:39:05;12.33;;;7.83;;
16506;SDS011;8366;51.020;7.642;2022-12-18T12:41:33;13.83;;;7.90;;
16506;SDS011;8366;51.020;7.642;2022-12-18T12:44:18;14.10;;;7.70;;
16506;SDS011;8366;51.020;7.642;2022-12-18T12:46:46;14.77;;;7.40;;
16506;SDS011;8366;51.020;7.642;2022-12-18T12:49:17;14.77;;;8.30;;
16506;SDS011;8366;51.020;7.642;2022-12-18T12:51:45;13.90;;;8.20;;
16506;SDS011;8366;51.020;7.642;2022-12-18T12:54:14;15.33;;;7.87;;
16506;SDS011;8366;51.020;7.642;2022-12-18T12:56:44;13.50;;;8.27;;
16506;SDS011;8366;51.020;7.642;2022-12-18T12:59:18;14.43;;;7.97;;
16506;SDS011;8366;51.020;7.642;2022-12-18T13:01:49;14.43;;;8.30;;
16506;SDS011;8366;51.020;7.642;2022-12-18T13:10:39;15.80;;;8.63;;
16506;SDS011;8366;51.020;7.642;2022-12-18T13:13:06;14.73;;;9.23;;
16506;SDS011;8366;51.020;7.642;2022-12-18T13:16:07;17.73;;;9.07;;
16506;SDS011;8366;51.020;7.642;2022-12-18T13:18:35;15.23;;;9.20;;
16506;SDS011;8366;51.020;7.642;2022-12-18T13:21:02;15.27;;;9.00;;
16506;SDS011;8366;51.020;7.642;2022-12-18T13:23:34;14.33;;;8.53;;
16506;SDS011;8366;51.020;7.642;2022-12-18T13:28:59;14.90;;;8.50;;
16506;SDS011;8366;51.020;7.642;2022-12-18T13:34:35;15.37;;;8.83;;
16506;SDS011;8366;51.020;7.642;2022-12-18T13:43:30;16.47;;;9.57;;
16506;SDS011;8366;51.020;7.642;2022-12-18T13:46:03;15.43;;;9.10;;
16506;SDS011;8366;51.020;7.642;2022-12-18T13:48:32;19.37;;;10.07;;
16506;SDS011;8366;51.020;7.642;2022-12-18T13:51:02;20.50;;;10.30;;
16506;SDS011;8366;51.020;7.642;2022-12-18T13:53:31;17.47;;;9.33;;
16506;SDS011;8366;51.020;7.642;2022-12-18T13:56:01;16.80;;;9.77;;
16506;SDS011;8366;51.020;7.642;2022-12-18T13:58:28;16.67;;;10.17;;
16506;SDS011;8366;51.020;7.642;2022-12-18T14:00:55;17.67;;;9.90;;
16506;SDS011;8366;51.020;7.642;2022-12-18T14:03:24;17.53;;;10.40;;
16506;SDS011;8366;51.020;7.642;2022-12-18T14:05:53;18.40;;;10.40;;
16506;SDS011;8366;51.020;7.642;2022-12-18T14:08:23;19.13;;;11.00;;
16506;SDS011;8366;51.020;7.642;2022-12-18T14:10:51;18.20;;;11.33;;
16506;SDS011;8366;51.020;7.642;2022-12-18T14:13:23;20.33;;;11.50;;
16506;SDS011;8366;51.020;7.642;2022-12-18T14:15:51;19.03;;;10.80;;
16506;SDS011;8366;51.020;7.642;2022-12-18T14:18:19;19.33;;;11.93;;
16506;SDS011;8366;51.020;7.642;2022-12-18T14:20:47;20.87;;;11.83;;
16506;SDS011;8366;51.020;7.642;2022-12-18T14:26:19;21.67;;;11.23;;
16506;SDS011;8366;51.020;7.642;2022-12-18T14:28:48;21.50;;;11.87;;
16506;SDS011;8366;51.020;7.642;2022-12-18T14:31:18;22.03;;;12.53;;
16506;SDS011;8366;51.020;7.642;2022-12-18T14:33:45;21.90;;;11.73;;
16506;SDS011;8366;51.020;7.642;2022-12-18T14:36:13;20.93;;;12.17;;
16506;SDS011;8366;51.020;7.642;2022-12-18T14:38:43;20.97;;;11.87;;
16506;SDS011;8366;51.020;7.642;2022-12-18T14:41:14;20.60;;;11.87;;
16506;SDS011;8366;51.020;7.642;2022-12-18T14:43:42;23.97;;;12.30;;
16506;SDS011;8366;51.020;7.642;2022-12-18T14:46:25;23.57;;;13.03;;
16506;SDS011;8366;51.020;7.642;2022-12-18T14:48:53;20.93;;;12.30;;
16506;SDS011;8366;51.020;7.642;2022-12-18T14:51:20;22.57;;;12.77;;
16506;SDS011;8366;51.020;7.642;2022-12-18T14:53:52;24.17;;;13.20;;
16506;SDS011;8366;51.020;7.642;2022-12-18T14:56:20;23.00;;;12.70;;
16506;SDS011;8366;51.020;7.642;2022-12-18T14:58:49;24.83;;;13.00;;
16506;SDS011;8366;51.020;7.642;2022-12-18T15:01:24;25.40;;;13.53;;
16506;SDS011;8366;51.020;7.642;2022-12-18T15:03:52;22.90;;;12.87;;
16506;SDS011;8366;51.020;7.642;2022-12-18T15:09:03;23.00;;;13.10;;
16506;SDS011;8366;51.020;7.642;2022-12-18T15:11:32;23.30;;;12.97;;
16506;SDS011;8366;51.020;7.642;2022-12-18T15:14:24;25.70;;;14.20;;
16506;SDS011;8366;51.020;7.642;2022-12-18T15:16:58;24.40;;;13.43;;
16506;SDS011;8366;51.020;7.642;2022-12-18T15:19:26;23.93;;;12.83;;
16506;SDS011;8366;51.020;7.642;2022-12-18T15:21:58;22.27;;;13.13;;